| time (UTC) | temp F | wind direction | speed MPH | gust MPH | rain 1hr in | rain 24hr in | rain mn in | humidity % | barometer mb |
| 20260902125137 | 60 | 26 | 0.0 | 0.0 | 0.00 | 0.00 | 0.00 | 48 | 1020.3 |
| 20260902124134 | 60 | 33 | 0.0 | 0.0 | 0.00 | 0.00 | 0.00 | 49 | 1020.5 |
| 20260902123130 | 60 | 28 | 0.0 | 0.0 | 0.00 | 0.00 | 0.00 | 51 | 1020.5 |
| 20260902122126 | 60 | 28 | 0.0 | 0.0 | 0.00 | 0.00 | 0.00 | 55 | 1020.7 |
| 20260902121127 | 60 | 34 | 0.0 | 0.0 | 0.00 | 0.00 | 0.00 | 58 | 1020.3 |
| 20260902120126 | 60 | 31 | 0.0 | 0.0 | 0.00 | 0.00 | 0.00 | 63 | 1020.6 |
| 20260902115122 | 61 | 30 | 0.0 | 0.0 | 0.00 | 0.00 | 0.00 | 62 | 1020.6 |
| 20260902114117 | 61 | 38 | 0.0 | 0.0 | 0.00 | 0.00 | 0.00 | 59 | 1020.6 |
| 20260902113114 | 61 | 33 | 0.0 | 0.0 | 0.00 | 0.00 | 0.00 | 54 | 1020.3 |
| 20260902112112 | 62 | 28 | 0.0 | 0.0 | 0.00 | 0.00 | 0.00 | 51 | 1020.6 |
| 20260902111109 | 61 | 36 | 0.0 | 0.0 | 0.00 | 0.00 | 0.00 | 51 | 1020.6 |
| 20260902110107 | 61 | 33 | 0.0 | 0.0 | 0.00 | 0.00 | 0.00 | 52 | 1020.7 |
| 20260902105107 | 61 | 41 | 0.0 | 0.0 | 0.00 | 0.00 | 0.00 | 52 | 1020.6 |
| 20260902104102 | 61 | 33 | 0.0 | 0.0 | 0.00 | 0.00 | 0.00 | 49 | 1020.7 |
| 20260902103058 | 61 | 28 | 0.0 | 0.0 | 0.00 | 0.00 | 0.00 | 50 | 1020.9 |
| 20260902102057 | 61 | 27 | 0.0 | 0.0 | 0.00 | 0.00 | 0.00 | 49 | 1021.0 |
| 20260902101056 | 62 | 31 | 0.0 | 0.0 | 0.00 | 0.00 | 0.00 | 50 | 1021.0 |
| 20260902100052 | 62 | 30 | 0.0 | 0.0 | 0.00 | 0.00 | 0.00 | 54 | 1021.1 |
| 20260902095050 | 62 | 38 | 0.0 | 0.0 | 0.00 | 0.00 | 0.00 | 58 | 1021.1 |
| 20260902094048 | 62 | 28 | 0.0 | 0.0 | 0.00 | 0.00 | 0.00 | 54 | 1020.9 |
| 20260902093042 | 61 | 31 | 0.0 | 0.0 | 0.00 | 0.00 | 0.00 | 53 | 1020.8 |
| 20260902092038 | 61 | 30 | 0.0 | 0.0 | 0.00 | 0.00 | 0.00 | 53 | 1020.8 |
| 20260902091035 | 62 | 29 | 0.0 | 0.0 | 0.00 | 0.00 | 0.00 | 53 | 1020.8 |
| 20260902090030 | 62 | 30 | 0.0 | 0.0 | 0.00 | 0.00 | 0.00 | 61 | 1020.7 |
| 20260902085025 | 63 | 27 | 0.0 | 0.0 | 0.00 | 0.00 | 0.00 | 68 | 1020.8 |
| 20260902084023 | 64 | 28 | 0.0 | 0.0 | 0.00 | 0.00 | 0.00 | 68 | 1020.9 |
| 20260902083018 | 64 | 26 | 0.0 | 0.0 | 0.00 | 0.00 | 0.00 | 69 | 1021.0 |
| 20260902082016 | 64 | 29 | 0.0 | 0.0 | 0.00 | 0.00 | 0.00 | 68 | 1021.0 |
| 20260902081012 | 64 | 33 | 0.0 | 0.0 | 0.00 | 0.00 | 0.00 | 67 | 1021.1 |
| 20260902080010 | 64 | 28 | 0.0 | 0.0 | 0.00 | 0.00 | 0.00 | 65 | 1021.1 |
| 20260902075006 | 65 | 30 | 0.0 | 0.0 | 0.00 | 0.00 | 0.00 | 64 | 1020.9 |
| 20260902074007 | 66 | 30 | 0.0 | 0.0 | 0.00 | 0.00 | 0.00 | 64 | 1020.6 |
| 20260902073005 | 65 | 33 | 0.0 | 0.0 | 0.00 | 0.00 | 0.00 | 66 | 1020.6 |
| 20260902072003 | 65 | 33 | 0.0 | 0.0 | 0.00 | 0.00 | 0.00 | 67 | 1020.3 |
| 20260902070958 | 66 | 32 | 0.0 | 0.0 | 0.00 | 0.00 | 0.00 | 68 | 1020.5 |
| 20260902065958 | 67 | 32 | 0.0 | 0.0 | 0.00 | 0.00 | 0.00 | 66 | 1020.5 |
| 20260902064954 | 67 | 28 | 0.0 | 0.0 | 0.00 | 0.00 | 0.00 | 67 | 1020.2 |
| 20260902063951 | 67 | 30 | 0.0 | 0.0 | 0.00 | 0.00 | 0.00 | 71 | 1020.3 |
| 20260902062947 | 67 | 33 | 0.0 | 0.0 | 0.00 | 0.00 | 0.00 | 74 | 1020.5 |
| 20260902061946 | 68 | 36 | 0.0 | 0.0 | 0.00 | 0.00 | 0.00 | 73 | 1020.3 |
| 20260902060943 | 68 | 25 | 0.0 | 0.0 | 0.00 | 0.00 | 0.00 | 72 | 1020.2 |
| 20260902055941 | 69 | 31 | 0.0 | 1.0 | 0.00 | 0.00 | 0.00 | 72 | 1020.3 |
| 20260902054937 | 69 | 26 | 0.0 | 0.0 | 0.00 | 0.00 | 0.00 | 71 | 1020.1 |
| 20260902053934 | 70 | 34 | 0.0 | 0.0 | 0.00 | 0.00 | 0.00 | 69 | 1020.3 |
| 20260902052928 | 70 | 33 | 0.0 | 1.0 | 0.00 | 0.00 | 0.00 | 68 | 1020.2 |
| 20260902051924 | 70 | 359 | 0.0 | 1.0 | 0.00 | 0.00 | 0.00 | 66 | 1020.2 |
| 20260902050923 | 70 | 13 | 0.0 | 0.0 | 0.00 | 0.00 | 0.00 | 66 | 1020.1 |
| 20260902045918 | 71 | 22 | 0.0 | 1.0 | 0.00 | 0.00 | 0.00 | 65 | 1019.9 |
| 20260902044915 | 71 | 32 | 0.0 | 1.0 | 0.00 | 0.00 | 0.00 | 63 | 1019.8 |
| 20260902043912 | 71 | 21 | 0.0 | 1.0 | 0.00 | 0.00 | 0.00 | 63 | 1019.5 |
| 20260902042908 | 72 | 11 | 1.0 | 2.0 | 0.00 | 0.00 | 0.00 | 61 | 1019.7 |
| 20260902041903 | 72 | 36 | 0.0 | 2.0 | 0.00 | 0.00 | 0.00 | 59 | 1019.5 |
| 20260902040901 | 73 | 41 | 1.0 | 2.0 | 0.00 | 0.00 | 0.00 | 59 | 1019.4 |
| 20260902035856 | 73 | 353 | 1.0 | 1.0 | 0.00 | 0.00 | 0.00 | 59 | 1019.3 |
| 20260902034850 | 73 | 28 | 0.0 | 2.0 | 0.00 | 0.00 | 0.00 | 57 | 1018.9 |
| 20260902033850 | 74 | 24 | 1.0 | 2.0 | 0.00 | 0.00 | 0.00 | 56 | 1018.9 |
| 20260902032844 | 75 | 29 | 0.0 | 1.0 | 0.00 | 0.00 | 0.00 | 55 | 1018.6 |
| 20260902031844 | 75 | 37 | 0.0 | 0.0 | 0.00 | 0.00 | 0.00 | 55 | 1018.8 |
| 20260902030842 | 75 | 348 | 0.0 | 2.0 | 0.00 | 0.00 | 0.00 | 54 | 1018.6 |
| 20260902025841 | 76 | 28 | 0.0 | 1.0 | 0.00 | 0.00 | 0.00 | 53 | 1018.6 |
| 20260902024837 | 77 | 37 | 0.0 | 1.0 | 0.00 | 0.00 | 0.00 | 52 | 1018.5 |
| 20260902023834 | 77 | 26 | 0.0 | 2.0 | 0.00 | 0.00 | 0.00 | 51 | 1018.4 |
| 20260902022834 | 77 | 40 | 0.0 | 2.0 | 0.00 | 0.00 | 0.00 | 51 | 1018.4 |
| 20260902021832 | 78 | 359 | 1.0 | 3.0 | 0.00 | 0.00 | 0.00 | 50 | 1018.4 |
| 20260902020828 | 78 | 32 | 1.0 | 4.0 | 0.00 | 0.00 | 0.00 | 50 | 1018.2 |
| 20260902015825 | 80 | 17 | 1.0 | 3.0 | 0.00 | 0.00 | 0.00 | 48 | 1018.2 |
| 20260902014822 | 81 | 69 | 2.0 | 3.0 | 0.00 | 0.00 | 0.00 | 46 | 1018.4 |
| 20260902013817 | 82 | 5 | 1.0 | 4.0 | 0.00 | 0.00 | 0.00 | 46 | 1018.3 |
| 20260902012814 | 83 | 295 | 1.0 | 4.0 | 0.00 | 0.00 | 0.00 | 45 | 1018.3 |
| 20260902011811 | 84 | 78 | 0.0 | 1.0 | 0.00 | 0.00 | 0.00 | 44 | 1018.2 |
| 20260902010810 | 84 | 357 | 2.0 | 4.0 | 0.00 | 0.00 | 0.00 | 43 | 1018.5 |
| 20260902005805 | 84 | 293 | 0.0 | 2.0 | 0.00 | 0.00 | 0.00 | 43 | 1018.4 |
| 20260902004800 | 85 | 25 | 1.0 | 3.0 | 0.00 | 0.00 | 0.00 | 42 | 1018.3 |
| 20260902003756 | 86 | 273 | 2.0 | 7.0 | 0.00 | 0.00 | 0.00 | 41 | 1018.5 |
| 20260902002753 | 86 | 90 | 2.0 | 8.0 | 0.00 | 0.00 | 0.00 | 40 | 1018.4 |
| 20260902001748 | 86 | 48 | 1.0 | 4.0 | 0.00 | 0.00 | 0.00 | 40 | 1018.5 |
| 20260902000749 | 88 | 55 | 3.0 | 7.0 | 0.00 | 0.00 | 0.00 | 39 | 1018.4 |
| 20260901235744 | 88 | 5 | 0.0 | 4.0 | 0.00 | 0.00 | 0.00 | 38 | 1018.3 |
| 20260901234744 | 87 | 353 | 1.0 | 3.0 | 0.00 | 0.00 | 0.00 | 37 | 1018.4 |
| 20260901233739 | 89 | 254 | 2.0 | 3.0 | 0.00 | 0.00 | 0.00 | 35 | 1018.4 |
| 20260901232736 | 89 | 18 | 1.0 | 2.0 | 0.00 | 0.00 | 0.00 | 36 | 1018.4 |
| 20260901231733 | 88 | 355 | 1.0 | 2.0 | 0.00 | 0.00 | 0.00 | 35 | 1018.4 |
| 20260901230731 | 88 | 15 | 2.0 | 3.0 | 0.00 | 0.00 | 0.00 | 35 | 1018.5 |
| 20260901225726 | 89 | 1 | 1.0 | 7.0 | 0.00 | 0.00 | 0.00 | 35 | 1018.5 |
| 20260901224722 | 89 | 10 | 1.0 | 3.0 | 0.00 | 0.00 | 0.00 | 34 | 1018.5 |
| 20260901223720 | 89 | 186 | 2.0 | 9.0 | 0.00 | 0.00 | 0.00 | 34 | 1018.5 |
| 20260901222716 | 90 | 80 | 1.0 | 4.0 | 0.00 | 0.00 | 0.00 | 32 | 1018.7 |
| 20260901221714 | 90 | 16 | 1.0 | 3.0 | 0.00 | 0.00 | 0.00 | 29 | 1018.7 |
| 20260901220715 | 91 | 277 | 2.0 | 4.0 | 0.00 | 0.00 | 0.00 | 28 | 1018.8 |
| 20260901215713 | 90 | 18 | 1.0 | 2.0 | 0.00 | 0.00 | 0.00 | 33 | 1018.8 |
| 20260901214711 | 90 | 51 | 1.0 | 2.0 | 0.00 | 0.00 | 0.00 | 31 | 1018.9 |
| 20260901213711 | 90 | 7 | 2.0 | 3.0 | 0.00 | 0.00 | 0.00 | 31 | 1019.0 |
| 20260901212712 | 90 | 13 | 1.0 | 4.0 | 0.00 | 0.00 | 0.00 | 31 | 1019.1 |
| 20260901211708 | 89 | 38 | 0.0 | 4.0 | 0.00 | 0.00 | 0.00 | 31 | 1019.2 |
| 20260901210706 | 89 | 328 | 1.0 | 2.0 | 0.00 | 0.00 | 0.00 | 33 | 1019.2 |
| 20260901205702 | 89 | 234 | 1.0 | 3.0 | 0.00 | 0.00 | 0.00 | 36 | 1019.3 |
| 20260901204658 | 90 | 43 | 0.0 | 3.0 | 0.00 | 0.00 | 0.00 | 32 | 1019.2 |
| 20260901203654 | 90 | 323 | 1.0 | 4.0 | 0.00 | 0.00 | 0.00 | 30 | 1019.5 |
| 20260901202654 | 88 | 11 | 0.0 | 3.0 | 0.00 | 0.00 | 0.00 | 31 | 1019.6 |
| 20260901201652 | 88 | 336 | 2.0 | 3.0 | 0.00 | 0.00 | 0.00 | 31 | 1019.7 |
| 20260901200650 | 89 | 43 | 0.0 | 3.0 | 0.00 | 0.00 | 0.00 | 31 | 1019.9 |
| 20260901195649 | 87 | 58 | 0.0 | 1.0 | 0.00 | 0.00 | 0.00 | 34 | 1020.1 |
| 20260901194645 | 86 | 338 | 1.0 | 3.0 | 0.00 | 0.00 | 0.00 | 34 | 1020.0 |
| 20260901193642 | 87 | 12 | 0.0 | 3.0 | 0.00 | 0.00 | 0.00 | 37 | 1020.0 |
| 20260901192642 | 86 | 3 | 1.0 | 3.0 | 0.00 | 0.00 | 0.00 | 39 | 1020.2 |
| 20260901191639 | 87 | 10 | 0.0 | 1.0 | 0.00 | 0.00 | 0.00 | 37 | 1020.1 |
| 20260901190637 | 85 | 22 | 1.0 | 3.0 | 0.00 | 0.00 | 0.00 | 42 | 1020.5 |
| 20260901185635 | 84 | 25 | 1.0 | 1.0 | 0.00 | 0.00 | 0.00 | 41 | 1020.6 |
| 20260901184629 | 84 | 260 | 1.0 | 2.0 | 0.00 | 0.00 | 0.00 | 45 | 1020.6 |
| 20260901183625 | 84 | 22 | 1.0 | 1.0 | 0.00 | 0.00 | 0.00 | 48 | 1020.5 |
| 20260901182623 | 84 | 22 | 0.0 | 1.0 | 0.00 | 0.00 | 0.00 | 46 | 1020.5 |
| 20260901181622 | 83 | 22 | 1.0 | 2.0 | 0.00 | 0.00 | 0.00 | 47 | 1020.8 |
| 20260901180621 | 81 | 21 | 0.0 | 1.0 | 0.00 | 0.00 | 0.00 | 49 | 1020.7 |
| 20260901175620 | 81 | 38 | 0.0 | 1.0 | 0.00 | 0.00 | 0.00 | 51 | 1020.9 |
| 20260901174617 | 81 | 270 | 1.0 | 2.0 | 0.00 | 0.00 | 0.00 | 53 | 1020.9 |
| 20260901173612 | 80 | 31 | 0.0 | 2.0 | 0.00 | 0.00 | 0.00 | 54 | 1020.9 |
| 20260901172610 | 80 | 21 | 0.0 | 2.0 | 0.00 | 0.00 | 0.00 | 54 | 1020.6 |
| 20260901171607 | 79 | 25 | 0.0 | 1.0 | 0.00 | 0.00 | 0.00 | 56 | 1020.6 |
| 20260901170606 | 79 | 16 | 0.0 | 2.0 | 0.00 | 0.00 | 0.00 | 56 | 1020.5 |
| 20260901165607 | 78 | 22 | 1.0 | 2.0 | 0.00 | 0.00 | 0.00 | 59 | 1020.5 |
| 20260901164603 | 79 | 41 | 0.0 | 2.0 | 0.00 | 0.00 | 0.00 | 57 | 1020.3 |
| 20260901163600 | 76 | 26 | 0.0 | 1.0 | 0.00 | 0.00 | 0.00 | 60 | 1020.3 |
| 20260901162600 | 77 | 24 | 0.0 | 1.0 | 0.00 | 0.00 | 0.00 | 60 | 1020.6 |
| 20260901161558 | 74 | 22 | 0.0 | 1.0 | 0.00 | 0.00 | 0.00 | 63 | 1020.5 |
| 20260901160555 | 76 | 317 | 0.0 | 1.0 | 0.00 | 0.00 | 0.00 | 61 | 1020.6 |
| 20260901155554 | 75 | 37 | 0.0 | 1.0 | 0.00 | 0.00 | 0.00 | 63 | 1020.5 |
| 20260901154550 | 75 | 102 | 2.0 | 2.0 | 0.00 | 0.00 | 0.00 | 63 | 1020.2 |
| 20260901153545 | 74 | 27 | 0.0 | 0.0 | 0.00 | 0.00 | 0.00 | 66 | 1020.2 |
| 20260901152540 | 73 | 32 | 0.0 | 0.0 | 0.00 | 0.00 | 0.00 | 66 | 1020.1 |
| 20260901151535 | 72 | 23 | 0.0 | 1.0 | 0.00 | 0.00 | 0.00 | 68 | 1020.2 |
| 20260901150532 | 70 | 23 | 0.0 | 1.0 | 0.00 | 0.00 | 0.00 | 70 | 1020.1 |
| 20260901145530 | 68 | 27 | 0.0 | 0.0 | 0.00 | 0.00 | 0.00 | 74 | 1020.3 |
| 20260901144526 | 67 | 31 | 0.0 | 1.0 | 0.00 | 0.00 | 0.00 | 75 | 1020.2 |
| 20260901143522 | 65 | 31 | 0.0 | 0.0 | 0.00 | 0.00 | 0.00 | 79 | 1020.1 |
| 20260901142519 | 64 | 28 | 0.0 | 0.0 | 0.00 | 0.00 | 0.00 | 77 | 1020.1 |
| 20260901141514 | 63 | 27 | 0.0 | 0.0 | 0.00 | 0.00 | 0.00 | 77 | 1020.0 |
| 20260901140513 | 62 | 28 | 0.0 | 0.0 | 0.00 | 0.00 | 0.00 | 77 | 1019.8 |
| 20260901135513 | 62 | 28 | 0.0 | 0.0 | 0.00 | 0.00 | 0.00 | 75 | 1019.6 |
| 20260901134511 | 62 | 27 | 0.0 | 0.0 | 0.00 | 0.00 | 0.00 | 73 | 1019.4 |
| 20260901133510 | 61 | 26 | 0.0 | 0.0 | 0.00 | 0.00 | 0.00 | 71 | 1019.5 |
| 20260901132508 | 61 | 26 | 0.0 | 0.0 | 0.00 | 0.00 | 0.00 | 67 | 1019.4 |
| 20260901131509 | 61 | 32 | 0.0 | 0.0 | 0.00 | 0.00 | 0.00 | 71 | 1019.3 |
| 20260901130505 | 62 | 30 | 0.0 | 0.0 | 0.00 | 0.00 | 0.00 | 74 | 1019.1 |